Moneymore, United Kingdom
Current Conditions -  °F | °C
As of 1:20 AM on Tuesday 25 Nov 2014 (Local Time) from EGAA Reporting Station
Moderate Fog Moderate Fog  
Wind Chill: 43°   Ceiling: 100
Heat Index: 43°   Visibility: 0.56mi
Dew Point: 43°   Wind: 2mph
Humidity: 100%   Direction: 190°S
Pressure: 30.24"   Gusts: NA
Location:  54.69°N, 6.67°W
Report Text: EGAA 250120Z 19002KT 0900 R25/0800 R07/P1500 FG OVC001 06/06 Q1024
Loading
Personal Weather Stations






























Interactive Weather Map New forecast layout! Learn more

10-Day Weather Forecast

Advertisements
Track Severe Weather on mobile